createdAt,value
2022-09-17T00:02:16.519Z,23.88
2022-09-17T00:07:19.504Z,23.76
2022-09-17T00:12:23.557Z,23.67
2022-09-17T00:17:26.457Z,23.61
2022-09-17T00:22:29.078Z,23.54
2022-09-17T00:27:33.245Z,23.51
2022-09-17T00:32:35.922Z,23.46
2022-09-17T00:37:38.613Z,23.37
2022-09-17T00:42:42.579Z,23.36
2022-09-17T00:47:46.909Z,23.35
2022-09-17T00:52:51.612Z,23.27
2022-09-17T00:57:57.953Z,23.24
2022-09-17T01:03:00.686Z,23.22
2022-09-17T01:08:08.856Z,23.24
2022-09-17T01:13:18.442Z,23.06
2022-09-17T01:18:26.765Z,23.00
2022-09-17T01:23:52.090Z,23.04
2022-09-17T01:28:58.585Z,22.99
2022-09-17T01:34:06.108Z,23.00
2022-09-17T01:39:13.176Z,22.99
2022-09-17T01:44:18.688Z,22.98
2022-09-17T01:49:22.692Z,22.96
2022-09-17T01:54:26.908Z,22.97
2022-09-17T01:59:31.450Z,22.92
2022-09-17T02:04:37.466Z,22.90
2022-09-17T02:09:42.117Z,22.90
2022-09-17T02:14:46.874Z,22.86
2022-09-17T02:19:50.860Z,22.88
2022-09-17T02:24:58.538Z,22.85
2022-09-17T02:30:01.226Z,22.83
2022-09-17T02:35:06.377Z,22.77
2022-09-17T02:40:10.461Z,22.76
2022-09-17T02:45:15.881Z,22.75
2022-09-17T02:50:25.614Z,22.71
2022-09-17T02:55:31.956Z,22.68
2022-09-17T03:00:35.994Z,22.67
2022-09-17T03:05:41.968Z,22.63
2022-09-17T03:10:44.608Z,22.59
2022-09-17T03:15:47.311Z,22.53
2022-09-17T03:20:51.328Z,22.53
2022-09-17T03:25:53.976Z,22.48
2022-09-17T03:30:56.773Z,22.42
2022-09-17T03:36:00.992Z,22.40
2022-09-17T03:41:04.958Z,22.37
2022-09-17T03:46:07.689Z,22.28
2022-09-17T03:51:11.677Z,22.24
2022-09-17T03:56:14.465Z,22.19
2022-09-17T04:01:17.264Z,22.14
2022-09-17T04:06:21.284Z,22.11
2022-09-17T04:11:24.053Z,22.09
2022-09-17T04:16:26.791Z,22.08
2022-09-17T04:21:30.956Z,22.07
2022-09-17T04:26:33.618Z,22.00
2022-09-17T04:31:36.299Z,22.01
2022-09-17T04:36:40.394Z,21.97
2022-09-17T04:41:43.054Z,21.94
2022-09-17T04:46:45.833Z,21.91
2022-09-17T04:51:49.906Z,21.88
2022-09-17T04:56:52.570Z,21.84
2022-09-17T05:01:55.523Z,21.81
2022-09-17T05:07:00.258Z,21.81
2022-09-17T05:12:03.386Z,21.79
2022-09-17T05:17:06.128Z,21.75
2022-09-17T05:22:10.110Z,21.73
2022-09-17T05:27:12.849Z,21.65
2022-09-17T05:32:15.523Z,21.61
2022-09-17T05:37:19.622Z,21.58
2022-09-17T05:42:22.325Z,21.61
2022-09-17T05:47:25.082Z,21.62
2022-09-17T05:52:29.804Z,21.60
2022-09-17T05:57:32.584Z,21.59
2022-09-17T06:02:35.618Z,21.56
2022-09-17T06:07:39.967Z,21.55
2022-09-17T06:12:42.640Z,21.55
2022-09-17T06:17:45.285Z,21.56
2022-09-17T06:22:49.492Z,21.56
2022-09-17T06:27:52.247Z,21.58
2022-09-17T06:32:54.955Z,21.57
2022-09-17T06:37:58.932Z,21.57
2022-09-17T06:43:01.571Z,21.54
2022-09-17T06:48:05.552Z,21.56
2022-09-17T06:53:10.098Z,21.58
2022-09-17T06:58:12.757Z,21.59
2022-09-17T07:03:16.537Z,21.61
2022-09-17T07:08:26.941Z,21.67
2022-09-17T07:13:29.671Z,21.82
2022-09-17T07:18:32.285Z,21.84
2022-09-17T07:23:36.843Z,21.81
2022-09-17T07:28:39.755Z,21.81
2022-09-17T07:33:42.422Z,21.80
2022-09-17T07:38:47.330Z,21.36
2022-09-17T07:43:53.074Z,20.95
2022-09-17T07:48:55.985Z,20.99
2022-09-17T07:54:00.250Z,21.20
2022-09-17T07:59:03.414Z,21.32
2022-09-17T08:04:06.075Z,21.41
2022-09-17T08:09:10.844Z,21.50
2022-09-17T08:14:14.620Z,21.60
2022-09-17T08:19:19.141Z,21.64
2022-09-17T08:24:23.418Z,21.64
2022-09-17T08:29:26.201Z,21.66
2022-09-17T08:34:28.988Z,21.62
2022-09-17T08:39:32.956Z,21.68
2022-09-17T08:44:41.105Z,21.67
2022-09-17T08:49:49.567Z,21.66
2022-09-17T08:54:56.732Z,21.66
2022-09-17T09:00:01.488Z,21.67
2022-09-17T09:05:06.833Z,21.62
2022-09-17T09:10:15.314Z,21.62
2022-09-17T09:15:34.936Z,21.66
2022-09-17T09:20:41.321Z,21.65
2022-09-17T09:25:53.426Z,21.69
2022-09-17T09:31:00.180Z,21.70
2022-09-17T09:36:03.184Z,21.74
2022-09-17T09:41:09.827Z,21.79
2022-09-17T09:46:26.488Z,21.81
2022-09-17T09:51:33.815Z,21.81
2022-09-17T09:56:48.110Z,21.79
2022-09-17T10:01:51.122Z,21.79
2022-09-17T10:06:55.069Z,21.85
2022-09-17T10:12:04.051Z,21.83
2022-09-17T10:17:18.108Z,21.90
2022-09-17T10:22:24.953Z,21.95
2022-09-17T10:27:29.342Z,21.88
2022-09-17T10:32:32.164Z,21.89
2022-09-17T10:37:37.483Z,21.90
2022-09-17T10:42:41.473Z,21.93
2022-09-17T10:47:44.197Z,21.87
2022-09-17T10:52:48.325Z,21.83
2022-09-17T10:58:03.968Z,21.92
2022-09-17T11:03:36.369Z,21.89
2022-09-17T11:08:40.542Z,21.95
2022-09-17T11:13:47.176Z,22.01
2022-09-17T11:18:51.260Z,22.09
2022-09-17T11:24:10.027Z,22.18
2022-09-17T11:29:27.227Z,22.26
2022-09-17T11:34:33.137Z,22.28
2022-09-17T11:39:40.454Z,22.20
2022-09-17T11:44:48.218Z,22.15
2022-09-17T11:49:53.293Z,22.02
2022-09-17T11:56:16.500Z,21.98
2022-09-17T12:01:22.988Z,22.07
2022-09-17T12:06:29.938Z,22.19
2022-09-17T12:11:34.890Z,22.30
2022-09-17T12:16:40.150Z,22.39
2022-09-17T12:21:44.265Z,22.42
2022-09-17T12:27:01.279Z,22.42
2022-09-17T12:32:10.268Z,22.42
2022-09-17T12:37:16.050Z,22.49
2022-09-17T12:42:25.813Z,22.52
2022-09-17T12:47:54.454Z,22.58
2022-09-17T12:53:05.243Z,22.66
2022-09-17T12:58:12.247Z,22.57
2022-09-17T13:03:20.909Z,22.63
2022-09-17T13:08:40.101Z,22.88
2022-09-17T13:13:44.875Z,22.97
2022-09-17T13:19:15.130Z,23.20
2022-09-17T13:24:16.576Z,23.40
2022-09-17T13:29:58.064Z,23.47
2022-09-17T13:35:22.366Z,23.52
2022-09-17T13:40:25.963Z,23.60
2022-09-17T13:45:28.655Z,23.58
2022-09-17T13:50:33.859Z,23.78
2022-09-17T13:55:37.352Z,23.79
2022-09-17T14:00:54.168Z,23.89
2022-09-17T14:05:58.263Z,23.75
2022-09-17T14:11:04.364Z,23.74
2022-09-17T14:16:46.951Z,23.76
2022-09-17T14:22:00.642Z,23.77
2022-09-17T14:27:09.946Z,23.75
2022-09-17T14:32:15.992Z,23.77
2022-09-17T14:37:21.166Z,23.79
2022-09-17T14:42:25.292Z,23.78
2022-09-17T14:47:28.022Z,23.80
2022-09-17T14:52:32.648Z,23.80
2022-09-17T14:57:36.489Z,23.84
2022-09-17T15:02:41.428Z,23.84
2022-09-17T15:07:45.735Z,23.96
2022-09-17T15:12:48.729Z,23.98
2022-09-17T15:17:52.085Z,24.01
2022-09-17T15:22:58.127Z,24.02
2022-09-17T15:28:04.411Z,23.92
2022-09-17T15:33:11.702Z,23.70
2022-09-17T15:38:23.888Z,23.69
2022-09-17T15:43:28.000Z,23.55
2022-09-17T15:48:36.947Z,23.51
2022-09-17T15:53:40.940Z,23.48
2022-09-17T15:58:53.176Z,23.51
2022-09-17T16:04:41.083Z,23.36
2022-09-17T16:09:47.931Z,23.25
2022-09-17T16:14:52.190Z,23.19
2022-09-17T16:19:55.662Z,23.15
2022-09-17T16:24:59.726Z,23.17
2022-09-17T16:30:04.262Z,22.75
2022-09-17T16:35:07.385Z,22.15
2022-09-17T16:40:12.576Z,22.43
2022-09-17T16:45:15.704Z,22.48
2022-09-17T16:50:18.762Z,22.47
2022-09-17T16:55:22.762Z,22.40
2022-09-17T17:00:25.528Z,22.33
2022-09-17T17:05:28.257Z,22.31
2022-09-17T17:10:32.306Z,22.21
2022-09-17T17:15:34.970Z,22.17
2022-09-17T17:20:37.633Z,22.16
2022-09-17T17:25:41.611Z,22.14
2022-09-17T17:30:48.018Z,22.10
2022-09-17T17:35:50.851Z,22.11
2022-09-17T17:41:04.564Z,22.13
2022-09-17T17:46:07.762Z,22.25
2022-09-17T17:51:10.832Z,22.30
2022-09-17T17:56:14.845Z,22.37
2022-09-17T18:01:19.496Z,22.49
2022-09-17T18:06:22.214Z,22.53
2022-09-17T18:11:26.305Z,22.61
2022-09-17T18:16:29.147Z,22.67
2022-09-17T18:21:31.976Z,22.73
2022-09-17T18:26:36.030Z,22.75
2022-09-17T18:31:38.822Z,22.77
2022-09-17T18:36:41.665Z,22.82
2022-09-17T18:41:45.818Z,22.84
2022-09-17T18:46:49.900Z,22.87
2022-09-17T18:51:52.630Z,22.92
2022-09-17T18:56:56.711Z,22.96
2022-09-17T19:01:59.841Z,22.95
2022-09-17T19:07:02.763Z,22.98
2022-09-17T19:12:06.970Z,23.02
2022-09-17T19:17:09.949Z,23.03
2022-09-17T19:22:12.726Z,23.04
2022-09-17T19:27:16.763Z,23.07
2022-09-17T19:32:19.429Z,23.06
2022-09-17T19:37:22.170Z,23.10
2022-09-17T19:42:26.294Z,23.08
2022-09-17T19:47:29.205Z,23.11
2022-09-17T19:52:31.881Z,23.15
2022-09-17T19:57:36.000Z,23.17
2022-09-17T20:02:38.729Z,23.18
2022-09-17T20:07:42.735Z,23.15
2022-09-17T20:12:46.785Z,23.15
2022-09-17T20:17:49.532Z,23.16
2022-09-17T20:22:52.778Z,23.19
2022-09-17T20:27:56.852Z,23.16
2022-09-17T20:32:59.550Z,23.18
2022-09-17T20:43:26.823Z,23.14
2022-09-17T20:48:30.785Z,23.19
2022-09-17T20:53:34.411Z,23.20
2022-09-17T20:58:45.284Z,23.22
2022-09-17T21:03:49.982Z,23.17
2022-09-17T21:08:53.142Z,23.23
2022-09-17T21:13:57.210Z,23.22
2022-09-17T21:19:01.745Z,23.26
2022-09-17T21:24:05.475Z,23.25
2022-09-17T21:29:09.643Z,23.28
2022-09-17T21:34:13.322Z,23.29
2022-09-17T21:39:17.535Z,23.28
2022-09-17T21:44:21.859Z,23.28
2022-09-17T21:49:24.798Z,23.30
2022-09-17T21:54:27.514Z,23.36
2022-09-17T21:59:31.516Z,23.38
2022-09-17T22:04:34.343Z,23.32
2022-09-17T22:09:37.172Z,23.36
2022-09-17T22:14:41.318Z,23.35
2022-09-17T22:19:44.032Z,23.32
2022-09-17T22:24:46.683Z,23.34
2022-09-17T22:29:50.790Z,23.37
2022-09-17T22:34:53.912Z,23.30
2022-09-17T22:39:57.046Z,23.32
2022-09-17T22:45:01.604Z,23.32
2022-09-17T22:50:04.449Z,23.30
2022-09-17T22:55:07.402Z,23.34
2022-09-17T23:00:13.153Z,23.33
2022-09-17T23:05:16.001Z,23.36
2022-09-17T23:10:18.960Z,23.37
2022-09-17T23:15:27.214Z,23.42
2022-09-17T23:20:29.999Z,23.48
2022-09-17T23:25:33.064Z,23.53
2022-09-17T23:30:37.123Z,23.50
2022-09-17T23:35:39.811Z,23.57
2022-09-17T23:40:42.685Z,23.55
2022-09-17T23:45:46.775Z,23.56
2022-09-17T23:50:49.668Z,23.56
2022-09-17T23:55:52.423Z,23.57
